createdAt,value
2023-03-26T00:04:49.332Z,99310.88
2023-03-26T00:09:47.904Z,99306.94
2023-03-26T00:14:47.890Z,99307.0
2023-03-26T00:19:48.727Z,99302.42
2023-03-26T00:24:50.409Z,99290.75
2023-03-26T00:29:47.846Z,99285.72
2023-03-26T00:34:51.414Z,99282.06
2023-03-26T00:39:48.084Z,99276.64
2023-03-26T00:44:50.168Z,99276.73
2023-03-26T00:49:48.185Z,99273.53
2023-03-26T00:54:51.463Z,99274.92
2023-03-26T00:59:48.752Z,99273.75
2023-03-26T01:04:54.512Z,99268.96
2023-03-26T01:09:49.979Z,99272.91
2023-03-26T01:14:52.041Z,99272.79999999999
2023-03-26T01:19:52.140Z,99275.83
2023-03-26T01:24:52.194Z,99271.89
2023-03-26T01:29:53.175Z,99261.42
2023-03-26T01:34:58.095Z,99252.89
2023-03-26T01:39:52.422Z,99253.47
2023-03-26T01:41:25.839Z,99253.47
2023-03-26T01:44:54.300Z,99252.27
2023-03-26T01:49:48.005Z,99244.48
2023-03-26T01:54:49.461Z,99243.3
2023-03-26T01:57:28.298Z,99243.3
2023-03-26T02:00:00.794Z,99231.46
2023-03-26T02:04:53.416Z,99226.93000000001
2023-03-26T02:09:52.692Z,99225.37999999999
2023-03-26T02:14:48.321Z,99221.20999999999
2023-03-26T02:19:47.934Z,99217.66
2023-03-26T02:24:47.863Z,99223.65999999999
2023-03-26T02:29:49.398Z,99216.75
2023-03-26T02:30:56.720Z,99216.75
2023-03-26T02:34:50.288Z,99203.59
2023-03-26T02:39:47.776Z,99211.94
2023-03-26T02:44:47.940Z,99211.39
2023-03-26T02:49:47.859Z,99214.42
2023-03-26T02:54:47.782Z,99219.09000000001
2023-03-26T02:59:49.517Z,99211.83
2023-03-26T03:04:47.755Z,99215.61
2023-03-26T03:09:50.087Z,99213.45
2023-03-26T03:14:47.736Z,99223.91
2023-03-26T03:19:47.847Z,99222.37
2023-03-26T03:24:47.953Z,99223.0
2023-03-26T03:29:47.718Z,99226.81
2023-03-26T03:34:49.842Z,99220.98
2023-03-26T03:39:48.010Z,99220.75
2023-03-26T03:44:49.349Z,99216.79000000001
2023-03-26T03:49:48.257Z,99225.71
2023-03-26T03:54:48.544Z,99222.01
2023-03-26T03:59:48.537Z,99227.84
2023-03-26T04:04:49.275Z,99221.59
2023-03-26T04:09:47.918Z,99224.98000000001
2023-03-26T04:14:48.021Z,99221.19
2023-03-26T04:19:49.268Z,99211.13
2023-03-26T04:24:48.688Z,99208.54000000001
2023-03-26T04:29:49.354Z,99203.06
2023-03-26T04:34:47.787Z,99203.16
2023-03-26T04:39:49.213Z,99200.72
2023-03-26T04:44:49.899Z,99200.36
2023-03-26T04:49:47.850Z,99202.36
2023-03-26T04:54:48.216Z,99214.36
2023-03-26T04:59:47.650Z,99214.78
2023-03-26T05:04:48.985Z,99209.52
2023-03-26T05:09:47.930Z,99211.05
2023-03-26T05:14:47.759Z,99210.24
2023-03-26T05:17:41.957Z,99210.24
2023-03-26T05:19:47.839Z,99206.34999999999
2023-03-26T05:24:48.315Z,99209.39
2023-03-26T05:29:47.638Z,99207.34999999999
2023-03-26T05:34:47.729Z,99206.28
2023-03-26T05:39:52.201Z,99201.4
2023-03-26T05:44:47.795Z,99202.86
2023-03-26T05:49:47.790Z,99197.0
2023-03-26T05:54:48.009Z,99196.25
2023-03-26T05:59:47.691Z,99203.75
2023-03-26T06:04:47.779Z,99195.39
2023-03-26T06:09:47.962Z,99195.04
2023-03-26T06:14:47.817Z,99194.12
2023-03-26T06:19:47.730Z,99206.16
2023-03-26T06:24:48.038Z,99208.56
2023-03-26T06:29:48.065Z,99203.36
2023-03-26T06:34:47.983Z,99208.37
2023-03-26T06:39:47.861Z,99208.17
2023-03-26T06:44:47.587Z,99207.04
2023-03-26T06:49:47.695Z,99211.44
2023-03-26T06:54:47.771Z,99209.33
2023-03-26T06:59:47.949Z,99209.74
2023-03-26T07:04:47.608Z,99216.24
2023-03-26T07:09:47.799Z,99215.71
2023-03-26T07:14:47.713Z,99210.67
2023-03-26T07:19:48.330Z,99205.58
2023-03-26T07:24:48.279Z,99208.84
2023-03-26T07:29:51.770Z,99193.03
2023-03-26T07:34:54.098Z,99190.08
2023-03-26T07:39:56.793Z,99189.84
2023-03-26T07:44:53.486Z,99189.28
2023-03-26T07:49:48.281Z,99189.18
2023-03-26T07:54:48.489Z,99190.72
2023-03-26T07:59:52.048Z,99189.64
2023-03-26T08:04:59.107Z,99188.05
2023-03-26T08:09:59.045Z,99188.56
2023-03-26T08:14:56.645Z,99187.98000000001
2023-03-26T08:20:01.348Z,99182.70999999999
2023-03-26T08:25:06.228Z,99176.15
2023-03-26T08:29:54.601Z,99167.1
2023-03-26T08:34:47.798Z,99176.97
2023-03-26T08:39:47.783Z,99178.83
2023-03-26T08:45:07.500Z,99179.54999999999
2023-03-26T08:50:07.497Z,99175.05
2023-03-26T08:55:07.375Z,99174.65999999999
2023-03-26T08:59:57.916Z,99180.55
2023-03-26T09:05:07.400Z,99174.06
2023-03-26T09:10:08.265Z,99180.33
2023-03-26T09:15:07.360Z,99169.42
2023-03-26T09:19:58.440Z,99164.69
2023-03-26T09:25:07.000Z,99157.12
2023-03-26T09:30:07.844Z,99148.49
2023-03-26T09:35:07.394Z,99153.75
2023-03-26T09:39:59.878Z,99143.11
2023-03-26T09:45:09.441Z,99153.28
2023-03-26T09:49:52.514Z,99150.7
2023-03-26T09:55:07.666Z,99144.03
2023-03-26T10:00:01.145Z,99150.03
2023-03-26T10:05:03.952Z,99147.61
2023-03-26T10:09:55.906Z,99140.34
2023-03-26T10:14:57.600Z,99125.68
2023-03-26T10:19:59.758Z,99154.52
2023-03-26T10:25:04.870Z,99137.2
2023-03-26T10:30:03.265Z,99138.78
2023-03-26T10:34:55.734Z,99127.84
2023-03-26T10:40:09.227Z,99116.49
2023-03-26T10:44:59.373Z,99109.45
2023-03-26T10:49:58.629Z,99114.59
2023-03-26T10:54:54.328Z,99149.2
2023-03-26T10:59:47.489Z,99134.16
2023-03-26T11:04:54.781Z,99134.42
2023-03-26T11:09:57.299Z,99122.31
2023-03-26T11:14:55.799Z,99111.3
2023-03-26T11:19:57.199Z,99114.58
2023-03-26T11:24:59.039Z,99109.06
2023-03-26T11:29:55.762Z,99121.63
2023-03-26T11:34:57.351Z,99123.13
2023-03-26T11:39:51.944Z,99138.01
2023-03-26T11:44:52.675Z,99127.94
2023-03-26T11:49:51.710Z,99126.58
2023-03-26T11:54:47.402Z,99132.47
2023-03-26T11:59:56.982Z,99126.95
2023-03-26T12:04:54.249Z,99122.70999999999
2023-03-26T12:09:49.650Z,99140.8
2023-03-26T12:14:47.595Z,99136.35
2023-03-26T12:19:47.533Z,99133.48
2023-03-26T12:25:00.784Z,99126.64
2023-03-26T12:29:50.409Z,99132.46
2023-03-26T12:34:47.588Z,99131.58
2023-03-26T12:40:09.177Z,99122.88
2023-03-26T12:44:58.762Z,99113.11
2023-03-26T12:49:50.254Z,99104.76999999999
2023-03-26T12:54:56.304Z,99103.85
2023-03-26T13:00:07.793Z,99099.91
2023-03-26T13:05:06.306Z,99096.56999999999
2023-03-26T13:10:03.188Z,99102.92
2023-03-26T13:15:02.302Z,99110.58
2023-03-26T13:19:56.723Z,99101.12000000001
2023-03-26T13:24:53.430Z,99102.03
2023-03-26T13:29:56.919Z,99099.19
2023-03-26T13:35:03.282Z,99098.69
2023-03-26T13:39:56.663Z,99099.58
2023-03-26T13:45:04.493Z,99095.81
2023-03-26T13:49:51.446Z,99097.61
2023-03-26T13:54:51.657Z,99094.62
2023-03-26T13:59:51.595Z,99092.26999999999
2023-03-26T14:04:53.160Z,99100.9
2023-03-26T14:09:53.565Z,99098.96
2023-03-26T14:14:51.550Z,99093.69
2023-03-26T14:20:07.319Z,99100.59
2023-03-26T14:24:57.834Z,99108.17
2023-03-26T14:30:02.809Z,99111.11
2023-03-26T14:35:04.024Z,99118.3
2023-03-26T14:40:13.771Z,99115.09
2023-03-26T14:45:04.882Z,99110.85
2023-03-26T14:50:07.339Z,99112.67
2023-03-26T14:54:51.773Z,99113.83
2023-03-26T15:00:13.488Z,99109.15
2023-03-26T15:05:07.165Z,99111.83
2023-03-26T15:10:07.466Z,99104.97
2023-03-26T15:15:06.088Z,99108.47
2023-03-26T15:20:08.048Z,99108.12
2023-03-26T15:25:07.307Z,99117.62999999999
2023-03-26T15:30:07.654Z,99116.28
2023-03-26T15:35:08.731Z,99116.81999999999
2023-03-26T15:40:07.074Z,99122.23
2023-03-26T15:44:54.379Z,99132.2
2023-03-26T15:49:54.052Z,99133.47
2023-03-26T15:54:56.531Z,99131.58
2023-03-26T15:59:56.402Z,99133.18000000001
2023-03-26T16:04:52.963Z,99138.23999999999
2023-03-26T16:09:59.107Z,99143.83
2023-03-26T16:15:10.669Z,99151.42
2023-03-26T16:19:50.935Z,99147.43
2023-03-26T16:25:27.202Z,99155.64
2023-03-26T16:30:08.484Z,99157.05
2023-03-26T16:34:50.264Z,99154.54
2023-03-26T16:39:48.242Z,99158.53
2023-03-26T16:44:56.355Z,99164.09
2023-03-26T16:50:08.865Z,99170.18000000001
2023-03-26T16:54:53.173Z,99174.55
2023-03-26T17:00:07.553Z,99180.98
2023-03-26T17:04:51.422Z,99192.76999999999
2023-03-26T17:09:58.241Z,99197.43999999999
2023-03-26T17:14:55.416Z,99196.02
2023-03-26T17:19:53.590Z,99202.26
2023-03-26T17:24:52.984Z,99200.9
2023-03-26T17:29:59.756Z,99195.15
2023-03-26T17:34:57.243Z,99200.21
2023-03-26T17:40:11.159Z,99197.09
2023-03-26T17:40:40.070Z,99197.09
2023-03-26T17:44:49.395Z,99202.09999999999
2023-03-26T17:49:52.249Z,99200.40000000001
2023-03-26T17:54:51.489Z,99199.76000000001
2023-03-26T17:59:50.142Z,99202.07
2023-03-26T18:04:51.942Z,99202.31
2023-03-26T18:09:58.250Z,99205.33
2023-03-26T18:14:59.610Z,99202.0
2023-03-26T18:19:50.529Z,99203.53
2023-03-26T18:24:48.123Z,99200.76000000001
2023-03-26T18:30:02.002Z,99203.26
2023-03-26T18:34:51.504Z,99203.66
2023-03-26T18:39:58.449Z,99205.97
2023-03-26T18:44:49.410Z,99197.36
2023-03-26T18:49:53.041Z,99201.68
2023-03-26T18:54:49.991Z,99199.3
2023-03-26T18:59:49.552Z,99196.01
2023-03-26T19:04:49.912Z,99175.86
2023-03-26T19:09:48.600Z,99173.86
2023-03-26T19:14:53.964Z,99168.89
2023-03-26T19:19:48.780Z,99161.05
2023-03-26T19:24:52.062Z,99159.3
2023-03-26T19:29:48.045Z,99149.65999999999
2023-03-26T19:34:47.503Z,99147.40000000001
2023-03-26T19:39:50.242Z,99150.76000000001
2023-03-26T19:44:47.249Z,99147.49
2023-03-26T19:49:52.229Z,99140.63
2023-03-26T19:54:59.254Z,99140.13
2023-03-26T19:59:50.933Z,99138.43000000001
2023-03-26T20:04:47.619Z,99141.38
2023-03-26T20:09:48.423Z,99131.3
2023-03-26T20:14:47.821Z,99127.12
2023-03-26T20:19:47.222Z,99124.51999999999
2023-03-26T20:24:47.493Z,99127.4
2023-03-26T20:29:47.277Z,99122.99
2023-03-26T20:34:48.623Z,99122.22
2023-03-26T20:39:47.280Z,99115.05
2023-03-26T20:44:47.158Z,99113.75
2023-03-26T20:49:47.034Z,99106.32
2023-03-26T20:54:48.301Z,99107.01000000001
2023-03-26T20:59:47.026Z,99112.19
2023-03-26T21:04:47.435Z,99119.98
2023-03-26T21:09:47.764Z,99125.48000000001
2023-03-26T21:14:47.496Z,99127.66
2023-03-26T21:19:49.204Z,99124.58
2023-03-26T21:25:00.186Z,99125.49
2023-03-26T21:29:47.321Z,99130.66
2023-03-26T21:34:57.507Z,99134.5
2023-03-26T21:39:47.655Z,99134.95
2023-03-26T21:44:47.671Z,99132.5
2023-03-26T21:49:47.218Z,99130.51000000001
2023-03-26T21:54:47.878Z,99132.76
2023-03-26T21:59:57.678Z,99126.4
2023-03-26T22:04:51.732Z,99113.22
2023-03-26T22:09:47.745Z,99104.98999999999
2023-03-26T22:14:46.973Z,99102.59999999999
2023-03-26T22:19:47.021Z,99106.5
2023-03-26T22:24:47.266Z,99102.31
2023-03-26T22:29:47.248Z,99103.3
2023-03-26T22:34:47.185Z,99104.49
2023-03-26T22:39:47.237Z,99105.36
2023-03-26T22:44:47.275Z,99107.36
2023-03-26T22:49:46.950Z,99107.81
2023-03-26T22:54:47.225Z,99107.98
2023-03-26T22:59:47.054Z,99106.93
2023-03-26T23:04:47.948Z,99110.20999999999
2023-03-26T23:09:47.125Z,99106.02
2023-03-26T23:14:51.808Z,99101.45
2023-03-26T23:19:47.022Z,99096.89
2023-03-26T23:24:47.413Z,99095.15
2023-03-26T23:29:47.203Z,99100.12000000001
2023-03-26T23:34:52.201Z,99100.83
2023-03-26T23:39:47.465Z,99106.19
2023-03-26T23:44:46.872Z,99109.17
2023-03-26T23:49:46.907Z,99107.67
2023-03-26T23:54:47.086Z,99107.54
2023-03-26T23:59:48.358Z,99113.06
